Aeroporto :
LOGIN :

Iscrizione | Disclaimer

   EN    FR    IT 

 










Sommario :    VFR   VFR Marginale   IFR   IFR Intensivo   IFR Molto Intensivo
Visibilità : 
Base nubi : 
>= 8 km
>= 3000ft
5 / 8 km
1000 / 3000 ft
1500m / 5 km
500 / 1000 ft
800 / 1500m
200 / 500 ft
< 800m
< 200 ft
Simboli :   Temporali  Nebbia  Neve Forte  Precipitazioni Forti  Vento > 20 kt
SIGMETs :   Varie  Temporali  Ghiacco  Turbolenza  Onda orograficha  Ceneri Vulcaniche






- Altitudine del aeroporto : 1521 ft
- Codice IATA : NCY


LFLP - Annecy

ULTIMO METAR :
  • 091430Z AUTO 33007KT 240V040 CAVOK 23/03 Q1021

METARs OBSOLETI :
  • 091400Z AUTO 34007KT 270V040 CAVOK 23/03 Q1021
  • 091330Z AUTO 34008KT 280V020 CAVOK 23/03 Q1021
  • 091300Z AUTO 34007KT 270V030 CAVOK 22/03 Q1021
  • 091230Z AUTO 32008KT 270V050 CAVOK 22/04 Q1022
  • 091200Z AUTO 30006KT 250V010 CAVOK 21/04 Q1022

Previsioni scadute.



MetMap, La meteo Aeronautica in un colpo d'occhio ! - Copyright ORBIFLY Dicembre 2007 - Disclaimer

ORBIFLY MET'MAP TEAM :

Programmazione e sviluppo : Alexandra Zaïnal
Concezione : Baudouin d'Aumeries
Aiuto per la programmazione : Marc-Olivier Méhu
Supporto tecnico e logistico : Manuel Goepfert
Aiuto per la traduzione : Arnaldo La Scala

Contatto : metmap@orbifly.com




FONTI E CREDITI :

   NOAA